Time;durP1;ratioP1;P1;durP2;ratioP2;P2;SDS_P1;SDS_P2;PMS_P1;PMS_P2;Temp;Humidity;BMP_temperature;BMP_pressure;BME280_temperature;BME280_humidity;BME280_pressure;Samples;Min_cycle;Max_cycle;Signal;HPM_P1;HPM_P2
2022/10/13 00:00:10;;;;;;;26.63;11.52;;;;;;;10.71;nan;94445.28;4920350;29;20055;-69
2022/10/13 00:02:36;;;;;;;29.98;12.43;;;;;;;10.73;nan;94440.94;4934474;29;20400;-70
2022/10/13 00:05:03;;;;;;;28.45;12.45;;;;;;;10.73;nan;94451.91;4901337;29;20039;-70
2022/10/13 00:07:30;;;;;;;28.00;12.47;;;;;;;10.73;nan;94443.69;4934631;29;20047;-70
2022/10/13 00:09:57;;;;;;;30.45;11.98;;;;;;;10.69;nan;94451.16;4933762;29;20035;-70
2022/10/13 00:12:24;;;;;;;28.17;13.05;;;;;;;10.68;nan;94451.56;4934575;29;20050;-69
2022/10/13 00:14:51;;;;;;;28.05;12.38;;;;;;;10.77;nan;94449.94;4934272;29;20040;-69
2022/10/13 00:17:17;;;;;;;25.85;11.95;;;;;;;10.62;nan;94448.47;4934055;29;20077;-69
2022/10/13 00:19:44;;;;;;;29.17;12.00;;;;;;;10.60;nan;94453.56;4917697;29;20048;-70
2022/10/13 00:22:11;;;;;;;27.60;12.07;;;;;;;10.68;nan;94457.03;4916677;29;20047;-70
2022/10/13 00:24:38;;;;;;;27.15;12.55;;;;;;;10.68;nan;94452.34;4934184;29;20065;-70
2022/10/13 00:27:04;;;;;;;25.13;11.90;;;;;;;10.76;nan;94455.81;4934023;29;20051;-70
2022/10/13 00:29:31;;;;;;;29.52;12.13;;;;;;;10.67;nan;94456.28;4919071;29;20050;-69
2022/10/13 00:31:58;;;;;;;25.50;11.60;;;;;;;10.67;nan;94456.28;4933653;29;20044;-70
2022/10/13 00:34:25;;;;;;;28.42;11.57;;;;;;;10.54;nan;94449.69;4933995;29;20051;-70
2022/10/13 00:36:51;;;;;;;29.77;11.75;;;;;;;10.57;nan;94452.41;4934006;29;20050;-70
2022/10/13 00:39:18;;;;;;;27.25;11.13;;;;;;;10.58;nan;94450.44;4933361;29;20405;-69
2022/10/13 00:41:45;;;;;;;26.95;12.05;;;;;;;10.51;nan;94443.03;4917120;29;20403;-69
2022/10/13 00:44:49;;;;;;;27.17;11.87;;;;;;;10.47;nan;94449.75;4933524;29;20392;-69
2022/10/13 00:47:16;;;;;;;25.98;11.20;;;;;;;10.46;nan;94448.94;4933335;29;20040;-70
2022/10/13 00:49:43;;;;;;;29.33;11.60;;;;;;;10.45;nan;94443.88;4933829;29;20052;-70
2022/10/13 00:52:13;;;;;;;30.40;12.02;;;;;;;10.42;nan;94439.19;4932923;29;20048;-70
2022/10/13 00:54:40;;;;;;;26.00;10.88;;;;;;;10.39;nan;94443.53;4916840;29;20059;-71
2022/10/13 00:57:08;;;;;;;23.97;10.73;;;;;;;10.54;nan;94435.97;4933351;29;20054;-69
2022/10/13 00:59:36;;;;;;;27.08;11.35;;;;;;;10.43;nan;94429.78;4933754;29;20040;-70
2022/10/13 01:02:03;;;;;;;24.83;11.30;;;;;;;10.35;nan;94431.78;4933018;29;20046;-70
2022/10/13 01:04:38;;;;;;;27.88;11.65;;;;;;;10.23;nan;94433.00;4933411;29;20047;-69
2022/10/13 01:07:05;;;;;;;28.80;11.75;;;;;;;10.22;nan;94439.66;4932926;29;20494;-70
2022/10/13 01:09:36;;;;;;;26.20;11.23;;;;;;;10.29;nan;94434.13;4933723;29;20046;-69
2022/10/13 01:12:31;;;;;;;27.52;11.30;;;;;;;10.50;nan;94437.94;4932794;29;20051;-70
2022/10/13 01:15:16;;;;;;;26.50;12.10;;;;;;;10.52;nan;94430.09;4932837;29;20058;-70
2022/10/13 01:17:55;;;;;;;28.67;11.85;;;;;;;10.54;nan;94428.53;4933458;29;20039;-70
2022/10/13 01:20:40;;;;;;;31.10;11.23;;;;;;;10.48;nan;94432.88;4932201;29;21522;-71
2022/10/13 01:23:29;;;;;;;31.67;12.10;;;;;;;10.53;nan;94437.16;4931759;29;20047;-70
2022/10/13 01:26:01;;;;;;;29.38;11.52;;;;;;;10.54;nan;94444.19;4932409;29;20047;-70
2022/10/13 01:29:06;;;;;;;28.70;11.60;;;;;;;10.31;nan;94442.00;4932994;29;20054;-70
2022/10/13 01:31:57;;;;;;;25.15;11.48;;;;;;;10.39;nan;94432.53;4918683;29;20702;-69
2022/10/13 01:34:29;;;;;;;28.95;11.27;;;;;;;10.33;nan;94436.91;4932107;29;20785;-70
2022/10/13 01:37:01;;;;;;;26.37;11.03;;;;;;;10.36;nan;94419.63;4932540;29;20657;-70
2022/10/13 01:40:05;;;;;;;27.33;10.88;;;;;;;10.35;nan;94415.31;4932996;29;20404;-70
2022/10/13 01:43:00;;;;;;;26.30;11.40;;;;;;;10.44;nan;94423.09;4902067;29;20881;-70
2022/10/13 01:45:35;;;;;;;29.17;11.25;;;;;;;10.52;nan;94417.19;4931994;29;21742;-70
2022/10/13 01:48:05;;;;;;;28.42;11.05;;;;;;;10.51;nan;94412.84;4932124;29;20050;-70
2022/10/13 01:50:34;;;;;;;25.40;11.00;;;;;;;10.51;nan;94412.84;4932832;29;20062;-70
2022/10/13 01:53:04;;;;;;;32.63;11.15;;;;;;;10.51;nan;94403.84;4931494;29;20447;-70
2022/10/13 01:55:30;;;;;;;25.98;11.50;;;;;;;10.48;nan;94408.16;4932487;29;20050;-70
2022/10/13 01:57:57;;;;;;;21.90;10.55;;;;;;;10.44;nan;94403.91;4931975;29;20047;-71
2022/10/13 02:00:25;;;;;;;23.08;10.63;;;;;;;10.36;nan;94400.41;4932253;29;20040;-70
2022/10/13 02:03:16;;;;;;;24.17;9.90;;;;;;;10.33;nan;94399.25;4932619;29;20405;-71
2022/10/13 02:06:15;;;;;;;21.38;9.65;;;;;;;10.22;nan;94403.22;4931777;29;20809;-70
2022/10/13 02:08:46;;;;;;;22.63;10.07;;;;;;;10.13;nan;94400.94;4927674;29;20513;-70
2022/10/13 02:11:19;;;;;;;21.52;9.57;;;;;;;10.23;nan;94397.34;4919664;29;20101;-70
2022/10/13 02:14:16;;;;;;;23.25;9.40;;;;;;;10.41;nan;94402.75;4932454;29;20060;-70
2022/10/13 02:16:45;;;;;;;25.37;9.67;;;;;;;10.36;nan;94403.16;4931641;29;20798;-70
2022/10/13 02:19:16;;;;;;;21.20;9.60;;;;;;;10.42;nan;94401.53;4931694;29;20415;-71
2022/10/13 02:21:44;;;;;;;23.10;9.55;;;;;;;10.33;nan;94396.53;4932529;29;20048;-72
2022/10/13 02:24:11;;;;;;;20.17;8.80;;;;;;;10.32;nan;94392.22;4931623;29;20055;-71
2022/10/13 02:26:39;;;;;;;22.45;9.43;;;;;;;10.27;nan;94408.28;4915532;29;20084;-70
2022/10/13 02:29:11;;;;;;;19.63;8.80;;;;;;;10.20;nan;94409.09;4915052;29;20052;-70
2022/10/13 02:31:38;;;;;;;19.95;8.63;;;;;;;10.18;nan;94412.28;4932277;29;20056;-71
2022/10/13 02:34:05;;;;;;;20.35;9.05;;;;;;;10.32;nan;94408.69;4931567;29;20497;-71
2022/10/13 02:36:33;;;;;;;23.05;9.57;;;;;;;10.24;nan;94414.56;4932190;29;20058;-70
2022/10/13 02:39:00;;;;;;;20.77;8.85;;;;;;;10.11;nan;94414.25;4931629;29;20058;-70
2022/10/13 02:41:27;;;;;;;19.23;8.30;;;;;;;10.20;nan;94412.66;4931957;29;20039;-70
2022/10/13 02:43:53;;;;;;;19.98;9.02;;;;;;;10.35;nan;94404.34;4931365;29;20051;-70
2022/10/13 02:46:20;;;;;;;18.73;8.80;;;;;;;10.47;nan;94411.34;4932067;29;20044;-70
2022/10/13 02:48:47;;;;;;;19.17;8.48;;;;;;;10.40;nan;94409.41;4930146;29;20504;-71
2022/10/13 02:51:14;;;;;;;20.52;8.35;;;;;;;10.36;nan;94406.69;4931150;29;20043;-71
2022/10/13 02:53:41;;;;;;;19.13;8.40;;;;;;;10.33;nan;94407.50;4931714;29;20051;-70
2022/10/13 02:56:07;;;;;;;22.80;9.15;;;;;;;10.38;nan;94407.06;4931339;29;20063;-71
2022/10/13 02:58:35;;;;;;;21.45;9.50;;;;;;;10.51;nan;94414.84;4931735;29;20044;-71
2022/10/13 03:01:13;;;;;;;23.35;10.23;;;;;;;10.51;nan;94415.59;4931460;29;20105;-71
2022/10/13 03:03:40;;;;;;;25.42;9.77;;;;;;;10.06;nan;94410.00;4931709;29;20052;-71
2022/10/13 03:06:07;;;;;;;22.77;10.10;;;;;;;9.82;nan;94416.34;4933134;29;20048;-71
2022/10/13 03:08:34;;;;;;;21.35;9.95;;;;;;;9.87;nan;94411.25;4935800;29;20044;-70
2022/10/13 03:11:01;;;;;;;22.30;9.90;;;;;;;9.93;nan;94406.13;4935000;29;20507;-70
2022/10/13 03:13:28;;;;;;;23.65;10.18;;;;;;;10.08;nan;94407.63;4935383;29;20066;-71
2022/10/13 03:15:55;;;;;;;25.50;10.27;;;;;;;10.27;nan;94409.06;4918019;29;20039;-70
2022/10/13 03:18:22;;;;;;;20.63;9.80;;;;;;;10.45;nan;94409.00;4935276;29;20052;-71
2022/10/13 03:21:00;;;;;;;20.40;9.45;;;;;;;10.55;nan;94410.88;4935408;29;20039;-71
2022/10/13 03:23:27;;;;;;;21.67;9.23;;;;;;;10.65;nan;94411.22;4918514;29;20813;-71
2022/10/13 03:25:54;;;;;;;21.05;9.70;;;;;;;10.49;nan;94411.72;4934689;29;20050;-71
2022/10/13 03:28:21;;;;;;;24.08;9.32;;;;;;;10.33;nan;94407.50;4935149;29;20501;-71
2022/10/13 03:30:48;;;;;;;24.07;9.20;;;;;;;10.55;nan;94404.63;4935140;29;20055;-71
2022/10/13 03:33:15;;;;;;;21.45;9.73;;;;;;;10.17;nan;94409.91;4934377;29;20060;-71
2022/10/13 03:35:42;;;;;;;22.08;9.55;;;;;;;9.85;nan;94405.38;4934940;29;20040;-71
2022/10/13 03:38:09;;;;;;;24.08;10.07;;;;;;;9.91;nan;94403.00;4934411;29;20433;-71
2022/10/13 03:40:36;;;;;;;25.60;10.00;;;;;;;9.93;nan;94400.66;4935282;29;20120;-71
2022/10/13 03:43:02;;;;;;;20.70;9.63;;;;;;;9.79;nan;94388.56;4934516;29;20094;-70
2022/10/13 03:45:30;;;;;;;22.50;9.63;;;;;;;9.71;nan;94389.00;4934642;29;20485;-70
2022/10/13 03:47:57;;;;;;;23.10;9.70;;;;;;;9.94;nan;94381.06;4933074;29;20046;-72
2022/10/13 03:50:25;;;;;;;25.30;10.35;;;;;;;10.15;nan;94379.38;4932121;29;20044;-70
2022/10/13 03:52:51;;;;;;;20.20;9.50;;;;;;;10.25;nan;94375.78;4934542;29;20042;-70
2022/10/13 03:55:18;;;;;;;20.30;8.67;;;;;;;10.36;nan;94376.53;4934019;29;20541;-71
2022/10/13 03:57:45;;;;;;;21.02;9.07;;;;;;;10.43;nan;94378.44;4934766;29;20056;-70
2022/10/13 04:00:12;;;;;;;23.38;11.05;;;;;;;10.47;nan;94373.69;4933934;29;20054;-69
2022/10/13 04:02:39;;;;;;;19.23;9.15;;;;;;;10.55;nan;94377.16;4934501;29;20055;-69
2022/10/13 04:05:07;;;;;;;19.02;8.93;;;;;;;10.61;nan;94388.50;4933703;29;20051;-71
2022/10/13 04:07:33;;;;;;;19.93;8.50;;;;;;;10.57;nan;94391.25;4934586;29;20056;-70
2022/10/13 04:10:00;;;;;;;19.40;8.90;;;;;;;10.53;nan;94396.00;4933977;29;20049;-70
2022/10/13 04:12:27;;;;;;;18.60;8.75;;;;;;;10.39;nan;94389.41;4934263;29;20048;-70
2022/10/13 04:14:54;;;;;;;18.50;8.48;;;;;;;10.50;nan;94394.06;4933950;29;20047;-68
2022/10/13 04:17:20;;;;;;;18.17;8.50;;;;;;;10.24;nan;94387.13;4933724;28;20044;-70
2022/10/13 04:19:47;;;;;;;22.17;9.67;;;;;;;9.98;nan;94387.31;4934287;29;20044;-70
2022/10/13 04:22:14;;;;;;;19.50;9.48;;;;;;;10.03;nan;94385.31;4916834;29;20048;-70
2022/10/13 04:24:41;;;;;;;21.83;10.15;;;;;;;9.82;nan;94380.72;4934143;29;20058;-70
2022/10/13 04:27:07;;;;;;;20.83;9.88;;;;;;;9.88;nan;94373.63;4933538;29;20048;-70
2022/10/13 04:29:34;;;;;;;23.50;10.23;;;;;;;10.12;nan;94369.19;4934167;29;20400;-70
2022/10/13 04:32:01;;;;;;;19.53;8.77;;;;;;;10.29;nan;94371.03;4933626;29;20048;-70
2022/10/13 04:34:28;;;;;;;18.98;8.50;;;;;;;10.34;nan;94375.34;4933914;29;20061;-70
2022/10/13 04:36:54;;;;;;;19.40;8.73;;;;;;;10.39;nan;94380.41;4916961;29;20040;-70
2022/10/13 04:39:21;;;;;;;18.15;8.25;;;;;;;10.34;nan;94376.16;4934079;29;20062;-70
2022/10/13 04:41:48;;;;;;;18.42;9.10;;;;;;;10.27;nan;94373.41;4934016;29;20052;-70
2022/10/13 04:44:15;;;;;;;20.17;9.10;;;;;;;10.19;nan;94371.91;4933216;29;20051;-70
2022/10/13 04:46:41;;;;;;;20.70;8.93;;;;;;;10.11;nan;94364.91;4933441;29;20127;-71
2022/10/13 04:49:08;;;;;;;20.60;9.88;;;;;;;10.17;nan;94366.81;4914454;29;20046;-71
2022/10/13 04:51:35;;;;;;;21.27;10.48;;;;;;;10.17;nan;94377.00;4923746;29;20047;-71
2022/10/13 04:54:04;;;;;;;21.67;11.40;;;;;;;10.13;nan;94373.50;4919747;29;20060;-72
2022/10/13 04:56:31;;;;;;;24.63;11.07;;;;;;;10.12;nan;94374.66;4934805;29;20046;-72
2022/10/13 04:58:58;;;;;;;22.90;11.10;;;;;;;10.12;nan;94371.94;4932234;29;20155;-71
2022/10/13 05:01:25;;;;;;;21.33;9.77;;;;;;;9.83;nan;94383.06;4915942;29;20043;-71
2022/10/13 05:03:58;;;;;;;19.45;9.70;;;;;;;10.10;nan;94374.28;4915808;29;20051;-71
2022/10/13 05:06:28;;;;;;;18.80;9.18;;;;;;;10.11;nan;94370.38;4931644;29;20056;-71
2022/10/13 05:08:56;;;;;;;19.03;8.93;;;;;;;10.04;nan;94371.22;4929967;29;20036;-70
2022/10/13 05:11:25;;;;;;;24.20;10.60;;;;;;;10.16;nan;94367.19;4932708;29;20151;-71
2022/10/13 05:13:53;;;;;;;21.30;9.90;;;;;;;10.28;nan;94365.94;4915206;29;20048;-71
2022/10/13 05:16:21;;;;;;;18.52;9.73;;;;;;;10.21;nan;94366.78;4931658;29;21771;-71
2022/10/13 05:18:53;;;;;;;27.02;13.48;;;;;;;10.17;nan;94371.53;4932651;29;20054;-70
2022/10/13 05:21:26;;;;;;;62.77;27.53;;;;;;;10.27;nan;94373.41;4931600;29;20692;-65
2022/10/13 05:23:54;;;;;;;37.33;16.13;;;;;;;10.19;nan;94366.41;4931641;29;20400;-70
2022/10/13 05:26:27;;;;;;;23.77;10.95;;;;;;;10.26;nan;94363.63;4914966;29;20329;-70
2022/10/13 05:28:55;;;;;;;19.13;10.38;;;;;;;10.38;nan;94368.66;4931546;29;20050;-68
2022/10/13 05:31:24;;;;;;;25.83;10.60;;;;;;;10.41;nan;94374.53;4933010;29;20412;-69
2022/10/13 05:33:51;;;;;;;23.33;10.23;;;;;;;10.36;nan;94360.06;4932655;29;20493;-70
2022/10/13 05:36:21;;;;;;;21.10;10.23;;;;;;;10.43;nan;94372.16;4931698;29;20426;-69
2022/10/13 05:38:53;;;;;;;22.00;10.25;;;;;;;10.23;nan;94374.63;4915481;29;20050;-71
2022/10/13 05:41:21;;;;;;;23.35;9.70;;;;;;;10.39;nan;94383.16;4931112;29;20680;-67
2022/10/13 05:43:49;;;;;;;19.52;8.70;;;;;;;10.42;nan;94385.09;4932212;29;20408;-66
2022/10/13 05:46:16;;;;;;;24.47;11.60;;;;;;;10.41;nan;94382.75;4930295;29;20054;-67
2022/10/13 05:48:43;;;;;;;31.13;12.77;;;;;;;10.40;nan;94381.97;4932459;29;20086;-68
2022/10/13 05:51:15;;;;;;;28.58;11.68;;;;;;;10.55;nan;94382.66;4931341;29;20052;-67
2022/10/13 05:53:46;;;;;;;29.85;12.43;;;;;;;10.46;nan;94376.84;4932504;29;20044;-67
2022/10/13 05:56:22;;;;;;;30.20;12.38;;;;;;;10.46;nan;94376.84;4932100;29;20102;-67
2022/10/13 05:58:54;;;;;;;30.87;12.57;;;;;;;10.48;nan;94379.94;4932829;29;20070;-67
2022/10/13 06:01:24;;;;;;;28.23;12.18;;;;;;;10.62;nan;94366.13;4931879;29;20712;-67
2022/10/13 06:03:55;;;;;;;25.85;11.80;;;;;;;10.69;nan;94362.56;4932828;29;20056;-69
2022/10/13 06:06:22;;;;;;;25.40;11.90;;;;;;;10.67;nan;94362.19;4915131;29;20692;-68
2022/10/13 06:08:53;;;;;;;27.08;12.45;;;;;;;10.64;nan;94354.75;4932010;29;20098;-66
2022/10/13 06:11:20;;;;;;;28.67;12.23;;;;;;;10.72;nan;94364.47;4932352;29;20044;-67
2022/10/13 06:13:47;;;;;;;29.35;12.07;;;;;;;10.79;nan;94356.19;4932214;29;20076;-66
2022/10/13 06:16:13;;;;;;;28.05;11.93;;;;;;;10.99;nan;94359.91;4932057;29;20489;-67
2022/10/13 06:18:40;;;;;;;31.20;12.32;;;;;;;10.96;nan;94351.69;4915382;29;20054;-67
2022/10/13 06:21:07;;;;;;;29.17;12.25;;;;;;;11.05;nan;94354.75;4931716;29;20040;-66
2022/10/13 06:23:34;;;;;;;28.27;10.77;;;;;;;11.12;nan;94362.13;4932350;29;20066;-66
2022/10/13 06:26:00;;;;;;;60.50;25.05;;;;;;;11.19;nan;94345.59;4931804;29;20472;-67
2022/10/13 06:28:27;;;;;;;48.00;20.17;;;;;;;11.21;nan;94348.72;4932393;29;20051;-67
2022/10/13 06:30:55;;;;;;;35.88;14.05;;;;;;;11.33;nan;94359.19;4931698;29;20047;-66
2022/10/13 06:33:23;;;;;;;25.85;12.35;;;;;;;11.27;nan;94351.78;4932173;29;20048;-66
2022/10/13 06:35:51;;;;;;;27.87;12.03;;;;;;;11.42;nan;94358.69;4932185;29;20408;-68
2022/10/13 06:38:18;;;;;;;27.42;12.00;;;;;;;11.31;nan;94361.56;4931829;29;20039;-67
2022/10/13 06:40:46;;;;;;;27.27;12.90;;;;;;;11.43;nan;94364.94;4931966;29;20051;-67
2022/10/13 06:43:12;;;;;;;27.60;11.73;;;;;;;11.51;nan;94358.19;4931669;29;20040;-67
2022/10/13 06:45:39;;;;;;;28.70;12.98;;;;;;;11.31;nan;94358.03;4931997;29;20066;-68
2022/10/13 06:48:06;;;;;;;31.33;13.10;;;;;;;11.39;nan;94357.53;4931648;29;20098;-67
2022/10/13 06:50:33;;;;;;;30.23;13.13;;;;;;;11.44;nan;94353.53;4932134;29;20058;-69
2022/10/13 06:53:00;;;;;;;24.88;12.18;;;;;;;11.62;nan;94358.06;4930947;29;20114;-67
2022/10/13 06:55:27;;;;;;;26.50;12.60;;;;;;;11.69;nan;94360.72;4932153;29;20057;-68
2022/10/13 06:57:54;;;;;;;33.40;13.90;;;;;;;11.61;nan;94354.53;4931473;29;20051;-65
2022/10/13 07:00:20;;;;;;;30.30;12.90;;;;;;;11.56;nan;94355.75;4931888;29;20051;-67
2022/10/13 07:02:51;;;;;;;30.10;13.70;;;;;;;11.59;nan;94354.94;4915151;29;20050;-67
2022/10/13 07:05:18;;;;;;;33.78;13.90;;;;;;;11.51;nan;94358.19;4931193;29;20048;-67
2022/10/13 07:07:45;;;;;;;33.85;14.00;;;;;;;11.26;nan;94358.47;4932063;29;20056;-69
2022/10/13 07:10:12;;;;;;;31.08;13.75;;;;;;;11.35;nan;94356.03;4931393;29;20539;-67
2022/10/13 07:12:39;;;;;;;30.50;13.73;;;;;;;11.44;nan;94350.03;4931888;29;20394;-69
2022/10/13 07:15:07;;;;;;;31.35;14.00;;;;;;;11.95;nan;94353.72;4931681;29;20053;-68
2022/10/13 07:17:33;;;;;;;32.30;14.35;;;;;;;12.27;nan;94330.47;4931798;29;20396;-66
2022/10/13 07:20:02;;;;;;;32.13;14.23;;;;;;;12.43;nan;94333.38;4931446;29;20047;-67
2022/10/13 07:22:32;;;;;;;33.20;13.85;;;;;;;12.50;nan;94338.00;4931891;29;20040;-67
2022/10/13 07:24:59;;;;;;;31.03;12.70;;;;;;;12.97;nan;94336.00;4931278;29;20047;-67
2022/10/13 07:27:26;;;;;;;30.70;12.13;;;;;;;13.15;nan;94332.94;4915037;29;20450;-67
2022/10/13 07:29:53;;;;;;;28.45;12.70;;;;;;;12.89;nan;94333.81;4931622;29;20040;-67
2022/10/13 07:32:20;;;;;;;31.25;12.93;;;;;;;12.52;nan;94341.13;4930757;29;20416;-67
2022/10/13 07:34:50;;;;;;;29.45;13.13;;;;;;;12.54;nan;94335.97;4931786;29;20401;-68
2022/10/13 07:37:17;;;;;;;29.27;12.80;;;;;;;12.32;nan;94333.56;4931170;29;20058;-68
2022/10/13 07:39:44;;;;;;;30.77;13.15;;;;;;;12.36;nan;94341.75;4931707;29;20062;-68
2022/10/13 07:42:11;;;;;;;32.75;13.45;;;;;;;12.66;nan;94335.38;4931048;29;20128;-66
2022/10/13 07:44:37;;;;;;;30.15;13.27;;;;;;;12.69;nan;94342.03;4931668;29;20044;-66
2022/10/13 07:47:04;;;;;;;29.55;12.70;;;;;;;13.14;nan;94339.66;4930926;29;20408;-67
2022/10/13 07:49:31;;;;;;;27.57;12.60;;;;;;;13.02;nan;94340.28;4914731;29;20404;-67
2022/10/13 07:51:58;;;;;;;30.50;13.05;;;;;;;12.75;nan;94343.09;4932195;29;20047;-68
2022/10/13 07:54:25;;;;;;;26.55;12.93;;;;;;;13.06;nan;94338.25;4934979;29;20073;-67
2022/10/13 07:56:54;;;;;;;30.95;13.40;;;;;;;12.96;nan;94336.47;4917931;29;20055;-69
2022/10/13 07:59:21;;;;;;;29.40;12.82;;;;;;;13.05;nan;94346.91;4917258;29;20824;-68
2022/10/13 08:01:48;;;;;;;22.90;11.90;;;;;;;12.99;nan;94355.66;4934922;29;20054;-67
2022/10/13 08:04:15;;;;;;;26.95;12.07;;;;;;;12.72;nan;94343.94;4934195;29;20054;-66
2022/10/13 08:06:42;;;;;;;28.30;12.15;;;;;;;12.48;nan;94341.16;4934348;29;20057;-66
2022/10/13 08:09:09;;;;;;;27.75;12.60;;;;;;;12.57;nan;94340.63;4934087;29;20043;-69
2022/10/13 08:11:36;;;;;;;26.90;12.55;;;;;;;12.46;nan;94337.28;4934721;29;20048;-67
2022/10/13 08:14:03;;;;;;;26.70;12.23;;;;;;;12.70;nan;94336.09;4917088;29;20039;-67
2022/10/13 08:16:31;;;;;;;28.83;12.90;;;;;;;12.62;nan;94336.66;4934464;29;20051;-67
2022/10/13 08:18:58;;;;;;;27.83;12.55;;;;;;;12.52;nan;94338.38;4933930;29;20052;-69
2022/10/13 08:21:26;;;;;;;28.67;12.40;;;;;;;12.47;nan;94330.56;4934376;29;20044;-67
2022/10/13 08:24:15;;;;;;;27.38;13.00;;;;;;;12.55;nan;94332.78;4921361;29;20064;-67
2022/10/13 08:26:43;;;;;;;28.17;11.80;;;;;;;12.57;nan;94332.38;4934392;29;20054;-67
2022/10/13 08:29:11;;;;;;;26.88;11.90;;;;;;;12.45;nan;94333.72;4930993;29;20606;-67
2022/10/13 08:31:54;;;;;;;25.50;11.68;;;;;;;12.61;nan;94333.09;4931785;29;20052;-66
2022/10/13 08:34:22;;;;;;;26.88;11.50;;;;;;;12.80;nan;94339.88;4934336;29;20048;-66
2022/10/13 08:36:53;;;;;;;24.55;10.90;;;;;;;12.95;nan;94327.38;4934192;29;20055;-66
2022/10/13 08:39:21;;;;;;;24.43;10.30;;;;;;;13.17;nan;94324.25;4933272;29;20736;-68
2022/10/13 08:41:48;;;;;;;24.52;10.50;;;;;;;13.04;nan;94329.63;4934338;29;20055;-68
2022/10/13 08:44:34;;;;;;;23.20;10.50;;;;;;;13.31;nan;94324.00;4933326;29;20044;-69
2022/10/13 08:47:36;;;;;;;23.17;10.52;;;;;;;13.61;nan;94319.50;4933003;29;20047;-70
2022/10/13 08:50:12;;;;;;;20.73;9.75;;;;;;;13.46;nan;94320.97;4926474;29;20050;-69
2022/10/13 08:53:03;;;;;;;22.10;9.97;;;;;;;13.91;nan;94317.69;4914711;29;20428;-68
2022/10/13 08:55:38;;;;;;;21.55;9.85;;;;;;;14.06;nan;94316.16;4922910;29;20421;-68
2022/10/13 08:58:16;;;;;;;18.20;9.68;;;;;;;14.14;nan;94312.03;4933414;29;20035;-68
2022/10/13 09:00:43;;;;;;;17.80;9.85;;;;;;;14.16;nan;94317.13;4933945;29;20395;-67
2022/10/13 09:03:25;;;;;;;19.55;10.00;;;;;;;14.41;nan;94313.81;4932167;29;20046;-67
2022/10/13 09:06:34;;;;;;;20.33;9.33;;;;;;;14.47;nan;94312.09;4933297;29;20048;-70
2022/10/13 09:09:04;;;;;;;17.88;9.40;;;;;;;15.20;nan;94308.31;4931770;29;20110;-69
2022/10/13 09:11:43;;;;;;;20.42;9.88;;;;;;;14.90;nan;94315.81;4933596;29;20497;-67
2022/10/13 09:14:17;;;;;;;20.88;9.55;;;;;;;14.69;nan;94315.13;4933011;29;20100;-68
2022/10/13 09:16:45;;;;;;;21.48;9.80;;;;;;;14.92;nan;94316.91;4933503;29;20085;-68
2022/10/13 09:19:21;;;;;;;17.57;9.83;;;;;;;15.15;nan;94315.94;4932959;29;20451;-69
2022/10/13 09:21:50;;;;;;;17.13;9.38;;;;;;;15.00;nan;94308.44;4932920;29;20058;-69
2022/10/13 09:24:19;;;;;;;21.27;9.65;;;;;;;15.05;nan;94314.22;4932423;29;20039;-68
2022/10/13 09:26:49;;;;;;;17.13;9.38;;;;;;;15.05;nan;94314.22;4920070;29;20046;-68
2022/10/13 09:29:19;;;;;;;18.30;9.77;;;;;;;14.44;nan;94310.16;4932869;29;20054;-68
2022/10/13 09:31:46;;;;;;;19.13;9.00;;;;;;;15.09;nan;94303.84;4933357;29;20036;-68
2022/10/13 09:34:19;;;;;;;18.52;9.63;;;;;;;14.73;nan;94299.25;4932675;29;20047;-70
2022/10/13 09:36:58;;;;;;;19.27;9.10;;;;;;;14.90;nan;94304.75;4933121;29;20513;-69
2022/10/13 09:39:26;;;;;;;18.75;9.38;;;;;;;14.72;nan;94314.25;4932386;29;20854;-68
2022/10/13 09:42:16;;;;;;;21.20;9.57;;;;;;;14.99;nan;94310.44;4933249;29;20154;-69
2022/10/13 09:44:44;;;;;;;16.83;9.00;;;;;;;14.85;nan;94311.59;4932381;29;20397;-68
2022/10/13 09:47:20;;;;;;;17.70;8.90;;;;;;;14.52;nan;94317.06;4932422;29;20047;-69
2022/10/13 09:50:03;;;;;;;18.38;9.35;;;;;;;14.87;nan;94313.88;4903226;29;20039;-68
2022/10/13 09:52:33;;;;;;;18.90;9.20;;;;;;;14.72;nan;94310.72;4931919;29;20040;-68
2022/10/13 09:55:00;;;;;;;19.70;9.25;;;;;;;14.83;nan;94307.69;4932276;29;20054;-67
2022/10/13 09:57:32;;;;;;;20.60;9.33;;;;;;;14.77;nan;94290.88;4933138;29;20409;-66
2022/10/13 10:00:20;;;;;;;19.02;8.73;;;;;;;14.37;nan;94296.56;4932124;29;20042;-67
2022/10/13 10:02:59;;;;;;;17.20;8.95;;;;;;;14.42;nan;94293.25;4927193;29;20047;-66
2022/10/13 10:05:29;;;;;;;16.77;9.07;;;;;;;14.43;nan;94297.59;4903033;29;20818;-68
2022/10/13 10:08:10;;;;;;;18.80;9.30;;;;;;;14.23;nan;94292.13;4931955;29;20043;-67
2022/10/13 10:10:39;;;;;;;21.83;9.70;;;;;;;14.52;nan;94297.75;4932479;29;20044;-67
2022/10/13 10:13:11;;;;;;;17.25;9.50;;;;;;;14.34;nan;94302.91;4932210;29;20070;-67
2022/10/13 10:15:56;;;;;;;19.77;9.02;;;;;;;14.69;nan;94304.09;4932042;29;20047;-67
2022/10/13 10:18:31;;;;;;;18.55;9.05;;;;;;;14.77;nan;94304.69;4932090;29;20114;-67
2022/10/13 10:21:13;;;;;;;19.25;9.88;;;;;;;14.53;nan;94298.53;4931962;29;20039;-66
2022/10/13 10:24:19;;;;;;;20.90;10.17;;;;;;;14.15;nan;94308.09;4932419;29;20054;-68
2022/10/13 10:26:57;;;;;;;19.48;9.57;;;;;;;14.16;nan;94303.34;4908880;29;21475;-67
2022/10/13 10:29:42;;;;;;;20.73;9.95;;;;;;;13.86;nan;94301.63;4931487;29;21602;-67
2022/10/13 10:32:18;;;;;;;18.35;9.75;;;;;;;14.41;nan;94294.47;4919307;29;20039;-66
2022/10/13 10:34:56;;;;;;;19.83;9.13;;;;;;;14.34;nan;94300.16;4932187;29;20055;-66
2022/10/13 10:38:01;;;;;;;20.00;8.93;;;;;;;14.23;nan;94302.41;4931312;29;20696;-67
2022/10/13 10:40:46;;;;;;;20.98;9.93;;;;;;;14.15;nan;94299.81;4922789;29;20518;-66
2022/10/13 10:43:29;;;;;;;20.42;10.10;;;;;;;14.21;nan;94294.56;4931770;29;20050;-67
2022/10/13 10:45:58;;;;;;;19.58;9.68;;;;;;;14.30;nan;94294.72;4931512;29;20415;-69
2022/10/13 10:48:33;;;;;;;19.35;9.60;;;;;;;14.30;nan;94294.72;4932378;29;20052;-67
2022/10/13 10:51:01;;;;;;;22.23;10.07;;;;;;;14.48;nan;94286.00;4914822;29;20459;-68
2022/10/13 10:53:45;;;;;;;17.60;9.80;;;;;;;14.91;nan;94290.50;4932107;29;20043;-66
2022/10/13 10:56:18;;;;;;;19.08;9.00;;;;;;;14.74;nan;94275.91;4914347;29;20056;-69
2022/10/13 10:59:06;;;;;;;19.08;9.15;;;;;;;14.62;nan;94282.16;4932056;29;20059;-67
2022/10/13 11:01:44;;;;;;;16.85;8.75;;;;;;;15.07;nan;94277.84;4914477;29;20659;-69
2022/10/13 11:04:35;;;;;;;17.03;9.27;;;;;;;15.24;nan;94278.59;4931726;29;20062;-67
2022/10/13 11:07:03;;;;;;;17.45;9.35;;;;;;;15.38;nan;94275.44;4931002;29;20480;-67
2022/10/13 11:09:41;;;;;;;18.92;9.27;;;;;;;15.33;nan;94264.88;4931708;29;20102;-67
2022/10/13 11:12:20;;;;;;;16.98;9.30;;;;;;;15.69;nan;94258.34;4931231;29;20054;-66
2022/10/13 11:15:07;;;;;;;20.02;8.80;;;;;;;16.21;nan;94262.72;4931903;29;20048;-66
2022/10/13 11:17:36;;;;;;;17.07;9.17;;;;;;;16.36;nan;94258.28;4931035;29;20666;-66
2022/10/13 11:20:15;;;;;;;16.70;8.57;;;;;;;16.02;nan;94263.69;4931382;29;20050;-66
2022/10/13 11:23:02;;;;;;;18.40;8.65;;;;;;;16.38;nan;94263.38;4931620;29;20062;-67
2022/10/13 11:25:40;;;;;;;19.70;9.57;;;;;;;16.34;nan;94255.19;4931070;29;20478;-67
2022/10/13 11:28:19;;;;;;;16.73;9.13;;;;;;;16.36;nan;94263.06;4934653;29;20044;-67
2022/10/13 11:30:46;;;;;;;16.57;9.10;;;;;;;15.80;nan;94267.13;4935438;29;20052;-66
2022/10/13 11:33:33;;;;;;;19.48;9.23;;;;;;;15.30;nan;94260.25;4934721;29;20050;-66
2022/10/13 11:36:34;;;;;;;16.30;8.50;;;;;;;14.73;nan;94259.81;4934841;29;20046;-67
2022/10/13 11:39:11;;;;;;;17.58;8.98;;;;;;;15.10;nan;94246.56;4934742;29;20048;-66
2022/10/13 11:41:46;;;;;;;19.60;8.90;;;;;;;15.06;nan;94241.13;4935447;29;20058;-66
2022/10/13 11:44:56;;;;;;;16.40;8.47;;;;;;;15.33;nan;94228.94;4934908;29;20046;-67
2022/10/13 11:47:38;;;;;;;15.13;8.60;;;;;;;15.38;nan;94234.72;4934194;29;20900;-71
2022/10/13 11:50:43;;;;;;;16.92;8.55;;;;;;;15.63;nan;94221.38;4934756;29;20049;-68
2022/10/13 11:53:20;;;;;;;17.38;8.68;;;;;;;15.61;nan;94216.28;4918845;29;20066;-67
2022/10/13 11:55:52;;;;;;;17.25;8.10;;;;;;;15.34;nan;94200.09;4917885;29;20058;-66
2022/10/13 11:58:20;;;;;;;16.10;8.00;;;;;;;15.66;nan;94204.66;4933254;29;20863;-69